createdAt,value
2018-08-10T00:00:14.200Z,3.67
2018-08-10T00:02:41.573Z,4.47
2018-08-10T00:05:09.615Z,4.20
2018-08-10T00:07:37.381Z,3.17
2018-08-10T00:10:06.498Z,6.27
2018-08-10T00:12:33.827Z,7.07
2018-08-10T00:15:01.159Z,3.83
2018-08-10T00:17:28.494Z,6.07
2018-08-10T00:19:55.807Z,3.50
2018-08-10T00:22:23.106Z,2.57
2018-08-10T00:24:50.433Z,7.23
2018-08-10T00:27:17.974Z,5.97
2018-08-10T00:29:45.291Z,5.87
2018-08-10T00:32:12.631Z,4.97
2018-08-10T00:34:40.006Z,4.77
2018-08-10T00:37:07.314Z,3.53
2018-08-10T00:39:34.633Z,9.27
2018-08-10T00:42:02.024Z,4.80
2018-08-10T00:44:29.352Z,3.60
2018-08-10T00:46:56.705Z,4.80
2018-08-10T00:49:24.004Z,4.73
2018-08-10T00:51:51.366Z,3.93
2018-08-10T00:54:18.675Z,4.10
2018-08-10T00:56:46.011Z,3.40
2018-08-10T00:59:13.487Z,5.07
2018-08-10T01:01:41.027Z,3.37
2018-08-10T01:04:08.374Z,3.73
2018-08-10T01:06:36.102Z,6.37
2018-08-10T01:09:07.031Z,3.87
2018-08-10T01:11:34.347Z,6.77
2018-08-10T01:14:01.745Z,4.77
2018-08-10T01:16:29.049Z,3.70
2018-08-10T01:18:56.386Z,4.43
2018-08-10T01:23:57.856Z,4.63
2018-08-10T01:26:25.170Z,2.67
2018-08-10T01:28:52.580Z,4.80
2018-08-10T01:31:19.833Z,5.63
2018-08-10T01:33:47.319Z,5.53
2018-08-10T01:36:14.614Z,5.70
2018-08-10T01:38:41.941Z,4.17
2018-08-10T01:41:09.278Z,4.17
2018-08-10T01:43:36.559Z,4.57
2018-08-10T01:46:03.916Z,4.43
2018-08-10T01:48:31.231Z,3.93
2018-08-10T01:50:58.782Z,4.53
2018-08-10T01:53:26.069Z,4.90
2018-08-10T01:55:53.396Z,6.13
2018-08-10T01:58:20.714Z,2.97
2018-08-10T02:00:48.076Z,7.90
2018-08-10T02:03:15.650Z,5.63
2018-08-10T02:05:42.975Z,4.80
2018-08-10T02:08:10.274Z,3.93
2018-08-10T02:13:11.586Z,5.63
2018-08-10T02:15:38.902Z,7.93
2018-08-10T02:18:06.194Z,4.23
2018-08-10T02:20:33.678Z,3.67
2018-08-10T02:23:00.967Z,8.37
2018-08-10T02:25:28.307Z,4.70
2018-08-10T02:28:02.380Z,9.93
2018-08-10T02:30:29.675Z,4.90
2018-08-10T02:32:56.998Z,9.83
2018-08-10T02:35:24.337Z,4.40
2018-08-10T02:37:51.937Z,6.67
2018-08-10T02:40:20.601Z,7.40
2018-08-10T02:42:48.794Z,5.37
2018-08-10T02:45:16.456Z,6.07
2018-08-10T02:47:44.224Z,7.83
2018-08-10T02:50:11.614Z,6.47
2018-08-10T02:52:38.944Z,6.17
2018-08-10T02:55:06.997Z,6.43
2018-08-10T02:57:34.344Z,6.90
2018-08-10T03:00:01.708Z,5.53
2018-08-10T03:02:29.016Z,9.00
2018-08-10T03:04:56.395Z,6.07
2018-08-10T03:07:23.726Z,7.27
2018-08-10T03:09:51.142Z,6.87
2018-08-10T03:12:18.427Z,6.07
2018-08-10T03:14:45.719Z,7.70
2018-08-10T03:17:19.845Z,5.83
2018-08-10T03:19:47.136Z,7.70
2018-08-10T03:22:14.541Z,5.67
2018-08-10T03:24:41.783Z,8.10
2018-08-10T03:27:09.275Z,6.57
2018-08-10T03:29:36.738Z,5.30
2018-08-10T03:32:04.504Z,5.57
2018-08-10T03:34:31.846Z,6.50
2018-08-10T03:36:59.284Z,8.40
2018-08-10T03:39:26.611Z,5.23
2018-08-10T03:41:53.956Z,7.53
2018-08-10T03:44:21.226Z,6.47
2018-08-10T03:46:48.532Z,5.70
2018-08-10T03:49:15.918Z,7.73
2018-08-10T03:51:43.243Z,5.93
2018-08-10T03:54:10.570Z,6.73
2018-08-10T03:56:38.123Z,4.60
2018-08-10T03:59:05.439Z,5.10
2018-08-10T04:01:32.760Z,4.77
2018-08-10T04:04:00.103Z,8.97
2018-08-10T04:06:27.420Z,5.20
2018-08-10T04:08:54.747Z,8.30
2018-08-10T04:11:22.034Z,6.73
2018-08-10T04:13:49.607Z,6.43
2018-08-10T04:16:17.042Z,6.17
2018-08-10T04:18:44.385Z,5.53
2018-08-10T04:21:11.703Z,7.50
2018-08-10T04:23:39.015Z,5.13
2018-08-10T04:26:06.378Z,5.40
2018-08-10T04:28:33.721Z,8.30
2018-08-10T04:31:01.207Z,10.53
2018-08-10T04:33:28.542Z,6.17
2018-08-10T04:35:55.874Z,5.87
2018-08-10T04:38:23.212Z,7.53
2018-08-10T04:40:50.546Z,7.43
2018-08-10T04:43:17.875Z,7.87
2018-08-10T04:45:45.198Z,8.37
2018-08-10T04:48:12.547Z,9.13
2018-08-10T04:50:39.819Z,9.00
2018-08-10T04:53:07.138Z,10.10
2018-08-10T04:55:34.874Z,11.13
2018-08-10T04:58:02.055Z,9.23
2018-08-10T05:00:29.362Z,9.23
2018-08-10T05:02:56.663Z,10.70
2018-08-10T05:05:23.971Z,11.63
2018-08-10T05:07:51.283Z,9.17
2018-08-10T05:10:18.599Z,10.17
2018-08-10T05:12:45.897Z,10.40
2018-08-10T05:15:20.048Z,9.87
2018-08-10T05:17:47.403Z,8.20
2018-08-10T05:20:14.720Z,10.80
2018-08-10T05:22:42.304Z,10.03
2018-08-10T05:25:16.459Z,11.33
2018-08-10T05:27:43.794Z,11.53
2018-08-10T05:30:11.535Z,8.70
2018-08-10T05:32:39.245Z,8.67
2018-08-10T05:35:07.677Z,12.93
2018-08-10T05:37:35.005Z,10.77
2018-08-10T05:40:02.348Z,10.43
2018-08-10T05:42:29.680Z,8.00
2018-08-10T05:44:57.079Z,9.10
2018-08-10T05:47:24.385Z,8.20
2018-08-10T05:49:51.678Z,13.50
2018-08-10T05:52:18.999Z,10.90
2018-08-10T05:54:46.307Z,9.10
2018-08-10T05:57:13.646Z,8.70
2018-08-10T05:59:40.966Z,8.57
2018-08-10T06:02:08.243Z,9.23
2018-08-10T06:04:35.559Z,8.37
2018-08-10T06:07:02.939Z,10.57
2018-08-10T06:09:30.296Z,8.30
2018-08-10T06:11:57.616Z,8.10
2018-08-10T06:14:24.943Z,8.27
2018-08-10T06:16:52.251Z,10.37
2018-08-10T06:19:19.610Z,8.23
2018-08-10T06:21:46.895Z,8.57
2018-08-10T06:24:14.457Z,6.70
2018-08-10T06:26:41.774Z,7.40
2018-08-10T06:29:09.087Z,9.43
2018-08-10T06:31:36.418Z,10.37
2018-08-10T06:34:03.816Z,9.00
2018-08-10T06:36:31.079Z,9.10
2018-08-10T06:38:58.414Z,9.77
2018-08-10T06:41:25.950Z,9.60
2018-08-10T06:43:53.278Z,9.83
2018-08-10T06:46:20.644Z,8.47
2018-08-10T06:48:47.984Z,6.10
2018-08-10T06:51:15.503Z,7.83
2018-08-10T06:53:42.844Z,5.97
2018-08-10T06:56:10.268Z,4.53
2018-08-10T06:58:37.510Z,8.23
2018-08-10T07:01:05.182Z,7.30
2018-08-10T07:03:32.455Z,7.23
2018-08-10T07:05:59.794Z,8.07
2018-08-10T07:08:27.159Z,7.47
2018-08-10T07:10:54.462Z,9.97
2018-08-10T07:13:22.093Z,7.63
2018-08-10T07:15:49.263Z,7.70
2018-08-10T07:18:16.597Z,8.33
2018-08-10T07:20:43.902Z,6.73
2018-08-10T07:23:11.251Z,7.03
2018-08-10T07:25:38.603Z,6.57
2018-08-10T07:28:05.939Z,10.73
2018-08-10T07:30:33.239Z,7.47
2018-08-10T07:33:00.611Z,6.67
2018-08-10T07:35:27.952Z,6.63
2018-08-10T07:37:58.301Z,8.20
2018-08-10T07:40:25.666Z,8.77
2018-08-10T07:42:53.015Z,8.80
2018-08-10T07:45:20.323Z,6.53
2018-08-10T07:47:47.662Z,9.23
2018-08-10T07:50:14.975Z,8.30
2018-08-10T07:52:42.301Z,4.53
2018-08-10T07:55:09.854Z,7.07
2018-08-10T07:57:37.203Z,7.13
2018-08-10T08:00:05.220Z,6.83
2018-08-10T08:02:32.574Z,9.03
2018-08-10T08:04:59.976Z,7.17
2018-08-10T08:07:27.322Z,5.47
2018-08-10T08:09:54.653Z,6.17
2018-08-10T08:12:22.001Z,5.53
2018-08-10T08:14:49.357Z,6.80
2018-08-10T08:17:16.712Z,5.07
2018-08-10T08:19:45.332Z,8.17
2018-08-10T08:22:19.884Z,6.40
2018-08-10T08:24:47.271Z,5.97
2018-08-10T08:27:16.024Z,5.73
2018-08-10T08:29:43.355Z,8.37
2018-08-10T08:32:11.041Z,6.27
2018-08-10T08:34:38.450Z,5.03
2018-08-10T08:37:06.239Z,4.60
2018-08-10T08:40:43.780Z,5.07
2018-08-10T08:43:11.397Z,6.17
2018-08-10T08:46:09.648Z,4.80
2018-08-10T08:48:39.901Z,4.60
2018-08-10T08:51:09.407Z,5.37
2018-08-10T08:53:37.168Z,9.10
2018-08-10T08:56:10.779Z,8.17
2018-08-10T08:58:38.647Z,5.50
2018-08-10T09:01:07.454Z,6.90
2018-08-10T09:03:46.257Z,4.80
2018-08-10T09:06:13.803Z,3.37
2018-08-10T09:09:45.542Z,7.17
2018-08-10T09:12:12.884Z,3.00
2018-08-10T09:14:46.821Z,4.80
2018-08-10T09:17:14.309Z,4.57
2018-08-10T09:19:41.948Z,4.00
2018-08-10T09:22:09.724Z,4.40
2018-08-10T09:24:37.092Z,5.03
2018-08-10T09:27:04.671Z,3.40
2018-08-10T09:29:32.823Z,3.00
2018-08-10T09:32:00.176Z,3.10
2018-08-10T09:34:28.314Z,4.90
2018-08-10T09:36:55.592Z,5.40
2018-08-10T09:39:22.956Z,4.10
2018-08-10T09:41:50.370Z,3.57
2018-08-10T09:44:17.860Z,8.33
2018-08-10T09:46:45.229Z,4.83
2018-08-10T09:49:12.655Z,8.07
2018-08-10T09:51:40.033Z,5.43
2018-08-10T09:54:07.717Z,2.63
2018-08-10T09:56:35.104Z,3.83
2018-08-10T09:59:02.483Z,3.43
2018-08-10T10:01:34.400Z,9.57
2018-08-10T10:04:01.747Z,3.40
2018-08-10T10:06:29.087Z,4.27
2018-08-10T10:08:56.744Z,5.20
2018-08-10T10:11:24.083Z,3.27
2018-08-10T10:13:51.502Z,3.73
2018-08-10T10:16:18.871Z,3.93
2018-08-10T10:18:46.454Z,3.17
2018-08-10T10:21:13.775Z,1.50
2018-08-10T10:23:41.111Z,3.27
2018-08-10T10:26:08.480Z,3.73
2018-08-10T10:28:35.803Z,3.43
2018-08-10T10:33:57.296Z,3.13
2018-08-10T10:36:24.621Z,3.20
2018-08-10T10:38:52.017Z,2.60
2018-08-10T10:41:19.377Z,2.07
2018-08-10T10:43:46.786Z,2.90
2018-08-10T10:46:14.485Z,3.53
2018-08-10T10:48:41.806Z,3.30
2018-08-10T10:51:09.191Z,4.50
2018-08-10T10:53:36.514Z,2.60
2018-08-10T10:56:03.856Z,3.13
2018-08-10T10:58:31.237Z,2.60
2018-08-10T11:00:58.617Z,2.30
2018-08-10T11:03:26.163Z,3.80
2018-08-10T11:05:53.487Z,2.63
2018-08-10T11:08:20.839Z,4.57
2018-08-10T11:10:48.439Z,2.77
2018-08-10T11:13:15.804Z,2.10
2018-08-10T11:15:43.155Z,2.40
2018-08-10T11:18:10.553Z,4.43
2018-08-10T11:20:37.855Z,3.13
2018-08-10T11:23:05.227Z,1.17
2018-08-10T11:25:32.615Z,2.20
2018-08-10T11:27:59.966Z,2.57
2018-08-10T11:30:27.329Z,1.77
2018-08-10T11:32:54.671Z,4.17
2018-08-10T11:35:21.993Z,2.93
2018-08-10T11:37:49.354Z,2.23
2018-08-10T11:40:17.011Z,2.93
2018-08-10T11:42:44.334Z,3.23
2018-08-10T11:45:15.384Z,2.23
2018-08-10T11:47:42.774Z,4.23
2018-08-10T11:50:10.153Z,2.23
2018-08-10T11:52:37.569Z,4.07
2018-08-10T11:55:05.847Z,2.67
2018-08-10T11:57:33.325Z,3.03
2018-08-10T12:00:00.624Z,4.70
2018-08-10T12:02:27.959Z,2.47
2018-08-10T12:04:55.272Z,2.77
2018-08-10T12:07:22.803Z,2.13
2018-08-10T12:09:50.092Z,2.23
2018-08-10T12:12:17.428Z,3.40
2018-08-10T12:14:44.764Z,4.90
2018-08-10T12:17:12.113Z,3.43
2018-08-10T12:19:39.524Z,3.43
2018-08-10T12:22:06.844Z,3.87
2018-08-10T12:24:34.254Z,4.10
2018-08-10T12:27:01.822Z,2.50
2018-08-10T12:29:29.181Z,3.70
2018-08-10T12:31:56.507Z,1.07
2018-08-10T12:34:23.848Z,2.43
2018-08-10T12:36:51.177Z,2.90
2018-08-10T12:39:18.525Z,2.70
2018-08-10T12:41:46.023Z,2.63
2018-08-10T12:44:13.369Z,3.43
2018-08-10T12:46:40.779Z,2.27
2018-08-10T12:49:08.571Z,1.33
2018-08-10T12:51:36.099Z,2.77
2018-08-10T12:54:03.500Z,2.47
2018-08-10T12:56:30.848Z,1.77
2018-08-10T12:58:58.156Z,1.53
2018-08-10T13:01:25.505Z,1.53
2018-08-10T13:03:53.174Z,3.97
2018-08-10T13:06:20.500Z,3.27
2018-08-10T13:08:47.872Z,1.97
2018-08-10T13:11:15.259Z,2.00
2018-08-10T13:13:42.611Z,1.40
2018-08-10T13:16:09.978Z,2.40
2018-08-10T13:18:37.323Z,2.33
2018-08-10T13:21:04.668Z,1.30
2018-08-10T13:23:32.055Z,2.20
2018-08-10T13:25:59.387Z,3.03
2018-08-10T13:28:26.700Z,2.70
2018-08-10T13:30:54.008Z,2.57
2018-08-10T13:33:21.439Z,1.60
2018-08-10T13:35:48.799Z,7.60
2018-08-10T13:38:16.117Z,2.40
2018-08-10T13:40:43.523Z,2.17
2018-08-10T13:43:10.872Z,3.53
2018-08-10T13:45:38.189Z,2.10
2018-08-10T13:48:05.847Z,2.07
2018-08-10T13:50:33.178Z,2.87
2018-08-10T13:53:00.503Z,1.93
2018-08-10T13:55:27.827Z,1.93
2018-08-10T13:57:55.155Z,1.20
2018-08-10T14:00:23.558Z,5.07
2018-08-10T14:02:52.378Z,1.73
2018-08-10T14:05:20.215Z,5.23
2018-08-10T14:07:47.903Z,2.13
2018-08-10T14:10:15.547Z,2.67
2018-08-10T14:12:43.206Z,0.80
2018-08-10T14:15:11.078Z,2.67
2018-08-10T14:17:38.428Z,1.37
2018-08-10T14:20:41.605Z,3.47
2018-08-10T14:23:08.943Z,1.73
2018-08-10T14:25:36.260Z,1.73
2018-08-10T14:28:03.673Z,1.10
2018-08-10T14:30:30.963Z,2.43
2018-08-10T14:32:58.323Z,1.87
2018-08-10T14:35:25.700Z,2.80
2018-08-10T14:37:53.044Z,3.00
2018-08-10T14:40:20.383Z,2.87
2018-08-10T14:42:47.699Z,1.93
2018-08-10T14:45:15.985Z,1.87
2018-08-10T14:47:43.339Z,2.93
2018-08-10T14:50:12.227Z,1.90
2018-08-10T14:52:39.748Z,1.33
2018-08-10T14:55:09.776Z,1.20
2018-08-10T14:57:37.159Z,2.57
2018-08-10T15:00:08.723Z,3.03
2018-08-10T15:02:36.100Z,1.73
2018-08-10T15:05:04.242Z,1.47
2018-08-10T15:07:31.579Z,1.40
2018-08-10T15:09:59.018Z,1.00
2018-08-10T15:12:26.594Z,2.77
2018-08-10T15:14:53.785Z,1.87
2018-08-10T15:17:21.100Z,1.97
2018-08-10T15:19:48.455Z,3.53
2018-08-10T15:22:15.837Z,2.20
2018-08-10T15:24:43.176Z,7.70
2018-08-10T15:27:10.510Z,2.87
2018-08-10T15:29:37.863Z,3.00
2018-08-10T15:32:05.215Z,2.43
2018-08-10T15:34:32.556Z,2.67
2018-08-10T15:36:59.894Z,4.57
2018-08-10T15:39:27.214Z,3.10
2018-08-10T15:41:54.536Z,2.33
2018-08-10T15:44:21.877Z,1.13
2018-08-10T15:46:49.243Z,2.10
2018-08-10T15:49:16.582Z,2.23
2018-08-10T15:51:43.933Z,1.93
2018-08-10T15:54:11.287Z,3.17
2018-08-10T15:56:38.618Z,6.13
2018-08-10T15:59:06.134Z,1.97
2018-08-10T16:01:33.559Z,3.97
2018-08-10T16:04:00.889Z,2.73
2018-08-10T16:06:28.262Z,2.27
2018-08-10T16:08:55.581Z,1.77
2018-08-10T16:11:22.907Z,2.77
2018-08-10T16:13:50.351Z,2.50
2018-08-10T16:16:17.655Z,3.67
2018-08-10T16:18:45.174Z,1.30
2018-08-10T16:21:12.562Z,2.03
2018-08-10T16:23:39.890Z,1.53
2018-08-10T16:26:07.295Z,4.00
2018-08-10T16:28:34.611Z,3.77
2018-08-10T16:31:01.919Z,2.20
2018-08-10T16:33:29.254Z,4.13
2018-08-10T16:35:56.603Z,4.67
2018-08-10T16:38:23.949Z,2.27
2018-08-10T16:40:51.295Z,3.57
2018-08-10T16:43:18.623Z,2.40
2018-08-10T16:45:46.004Z,1.40
2018-08-10T16:48:13.311Z,1.50
2018-08-10T16:50:40.681Z,2.40
2018-08-10T16:53:08.035Z,3.17
2018-08-10T16:55:35.356Z,4.80
2018-08-10T16:58:02.731Z,2.33
2018-08-10T17:00:30.112Z,1.23
2018-08-10T17:02:57.459Z,3.53
2018-08-10T17:05:25.069Z,1.57
2018-08-10T17:07:52.279Z,2.80
2018-08-10T17:10:19.624Z,2.20
2018-08-10T17:12:47.033Z,1.50
2018-08-10T17:15:16.269Z,2.93
2018-08-10T17:17:44.554Z,2.77
2018-08-10T17:20:12.511Z,3.10
2018-08-10T17:22:40.362Z,2.10
2018-08-10T17:25:08.954Z,2.27
2018-08-10T17:27:36.531Z,3.23
2018-08-10T17:30:05.753Z,1.70
2018-08-10T17:32:33.133Z,1.83
2018-08-10T17:35:00.548Z,1.93
2018-08-10T17:37:27.890Z,1.80
2018-08-10T17:39:55.333Z,2.53
2018-08-10T17:42:22.666Z,1.47
2018-08-10T17:44:49.992Z,3.03
2018-08-10T17:47:17.340Z,3.50
2018-08-10T17:49:44.660Z,1.27
2018-08-10T17:52:12.004Z,1.60
2018-08-10T17:54:39.350Z,2.73
2018-08-10T17:57:06.662Z,1.20
2018-08-10T17:59:34.037Z,2.13
2018-08-10T18:02:01.399Z,2.07
2018-08-10T18:04:29.016Z,2.00
2018-08-10T18:06:56.351Z,1.87
2018-08-10T18:09:23.727Z,1.40
2018-08-10T18:11:51.267Z,1.73
2018-08-10T18:14:18.596Z,1.00
2018-08-10T18:16:45.984Z,1.17
2018-08-10T18:19:13.336Z,3.70
2018-08-10T18:21:40.737Z,3.90
2018-08-10T18:24:08.118Z,2.07
2018-08-10T18:26:35.460Z,1.97
2018-08-10T18:29:02.831Z,3.80
2018-08-10T18:31:30.253Z,2.20
2018-08-10T18:33:57.610Z,3.67
2018-08-10T18:36:24.945Z,1.60
2018-08-10T18:38:52.287Z,1.80
2018-08-10T18:41:19.628Z,2.23
2018-08-10T18:43:46.971Z,2.43
2018-08-10T18:46:14.537Z,2.07
2018-08-10T18:48:41.877Z,3.40
2018-08-10T18:51:09.215Z,2.60
2018-08-10T18:53:36.773Z,1.40
2018-08-10T18:56:04.894Z,2.30
2018-08-10T18:58:32.216Z,1.53
2018-08-10T19:00:59.788Z,1.43
2018-08-10T19:03:27.147Z,2.33
2018-08-10T19:05:54.587Z,1.63
2018-08-10T19:08:21.908Z,2.23
2018-08-10T19:10:49.266Z,2.53
2018-08-10T19:13:16.826Z,2.23
2018-08-10T19:15:44.200Z,2.20
2018-08-10T19:18:11.579Z,1.77
2018-08-10T19:20:38.916Z,2.63
2018-08-10T19:23:06.259Z,3.63
2018-08-10T19:25:33.544Z,1.70
2018-08-10T19:28:00.912Z,2.93
2018-08-10T19:30:28.295Z,1.57
2018-08-10T19:32:55.633Z,3.23
2018-08-10T19:35:23.186Z,3.00
2018-08-10T19:37:50.546Z,3.13
2018-08-10T19:40:18.789Z,1.40
2018-08-10T19:42:46.242Z,2.00
2018-08-10T19:45:14.207Z,2.70
2018-08-10T19:47:41.630Z,4.17
2018-08-10T19:50:10.455Z,1.60
2018-08-10T19:52:37.875Z,1.50
2018-08-10T19:55:06.426Z,1.87
2018-08-10T19:57:34.118Z,4.20
2018-08-10T20:00:01.519Z,1.20
2018-08-10T20:02:28.977Z,2.40
2018-08-10T20:04:56.342Z,3.13
2018-08-10T20:07:23.728Z,2.03
2018-08-10T20:09:51.134Z,2.40
2018-08-10T20:12:18.826Z,2.00
2018-08-10T20:14:46.257Z,1.40
2018-08-10T20:17:13.713Z,1.77
2018-08-10T20:19:41.277Z,1.70
2018-08-10T20:22:14.251Z,2.23
2018-08-10T20:24:41.693Z,1.90
2018-08-10T20:27:09.926Z,4.20
2018-08-10T20:29:38.055Z,2.33
2018-08-10T20:32:05.563Z,2.30
2018-08-10T20:34:33.384Z,3.30
2018-08-10T20:37:01.043Z,2.33
2018-08-10T20:39:28.388Z,1.33
2018-08-10T20:41:55.797Z,1.50
2018-08-10T20:44:23.138Z,2.83
2018-08-10T20:46:50.535Z,2.30
2018-08-10T20:49:18.124Z,1.83
2018-08-10T20:51:45.495Z,1.17
2018-08-10T20:54:12.871Z,1.83
2018-08-10T20:56:40.220Z,1.93
2018-08-10T20:59:07.586Z,2.27
2018-08-10T21:01:34.965Z,1.47
2018-08-10T21:04:02.319Z,1.63
2018-08-10T21:06:29.689Z,1.77
2018-08-10T21:08:56.997Z,2.67
2018-08-10T21:11:24.352Z,2.27
2018-08-10T21:13:51.782Z,1.53
2018-08-10T21:16:19.160Z,2.50
2018-08-10T21:18:46.501Z,3.03
2018-08-10T21:21:13.848Z,1.60
2018-08-10T21:23:41.173Z,1.50
2018-08-10T21:26:08.482Z,2.30
2018-08-10T21:28:35.833Z,2.33
2018-08-10T21:31:03.202Z,2.87
2018-08-10T21:33:30.550Z,1.63
2018-08-10T21:35:57.868Z,1.90
2018-08-10T21:38:25.206Z,1.93
2018-08-10T21:40:52.528Z,1.77
2018-08-10T21:43:19.967Z,1.60
2018-08-10T21:45:47.276Z,5.43
2018-08-10T21:48:14.840Z,2.50
2018-08-10T21:50:42.151Z,2.27
2018-08-10T21:53:09.970Z,3.60
2018-08-10T21:55:37.514Z,1.93
2018-08-10T21:58:04.863Z,2.23
2018-08-10T22:00:57.299Z,3.33
2018-08-10T22:03:24.610Z,1.83
2018-08-10T22:05:51.924Z,1.90
2018-08-10T22:08:21.411Z,3.53
2018-08-10T22:10:49.088Z,4.27
2018-08-10T22:13:22.481Z,2.50
2018-08-10T22:15:55.639Z,3.60
2018-08-10T22:18:28.616Z,1.90
2018-08-10T22:20:56.423Z,3.63
2018-08-10T22:23:24.382Z,2.30
2018-08-10T22:25:51.799Z,3.43
2018-08-10T22:28:19.138Z,2.60
2018-08-10T22:30:46.552Z,2.23
2018-08-10T22:33:14.145Z,3.13
2018-08-10T22:38:16.103Z,4.60
2018-08-10T22:40:43.478Z,4.60
2018-08-10T22:43:11.312Z,4.73
2018-08-10T22:45:39.240Z,3.10
2018-08-10T22:48:06.672Z,3.27
2018-08-10T22:50:33.988Z,4.67
2018-08-10T22:53:01.347Z,3.30
2018-08-10T22:55:28.710Z,4.17
2018-08-10T22:57:56.162Z,5.53
2018-08-10T23:00:23.545Z,3.50
2018-08-10T23:02:50.928Z,2.73
2018-08-10T23:05:18.252Z,2.70
2018-08-10T23:07:45.621Z,4.70
2018-08-10T23:10:13.646Z,1.77
2018-08-10T23:12:41.930Z,2.47
2018-08-10T23:15:09.682Z,5.03
2018-08-10T23:17:37.387Z,2.83
2018-08-10T23:20:06.696Z,3.77
2018-08-10T23:22:34.120Z,3.27
2018-08-10T23:25:01.467Z,1.43
2018-08-10T23:27:28.799Z,1.10
2018-08-10T23:29:56.110Z,1.20
2018-08-10T23:32:23.622Z,1.17
2018-08-10T23:34:50.920Z,0.90
2018-08-10T23:37:18.216Z,0.90
2018-08-10T23:39:45.787Z,1.13
2018-08-10T23:42:13.100Z,1.33
2018-08-10T23:44:40.431Z,1.40
2018-08-10T23:47:07.755Z,1.30
2018-08-10T23:49:35.119Z,2.60
2018-08-10T23:52:02.434Z,1.30
2018-08-10T23:54:29.739Z,0.97
2018-08-10T23:56:57.055Z,1.60
2018-08-10T23:59:24.399Z,1.47
